createdAt,value
2023-05-21T00:00:51.966Z,559.7143
2023-05-21T00:02:00.143Z,558.7143
2023-05-21T00:03:08.190Z,564.5000
2023-05-21T00:04:16.166Z,566.2143
2023-05-21T00:05:24.234Z,565.8571
2023-05-21T00:06:32.530Z,567.2143
2023-05-21T00:07:40.523Z,566.9286
2023-05-21T00:08:48.452Z,571.5000
2023-05-21T00:09:56.322Z,561.8571
2023-05-21T00:11:04.385Z,560.2143
2023-05-21T00:12:12.451Z,562.5714
2023-05-21T00:13:20.716Z,562.4286
2023-05-21T00:14:28.695Z,561.9286
2023-05-21T00:15:37.187Z,556.5714
2023-05-21T00:16:44.977Z,561.6429
2023-05-21T00:17:52.911Z,558.4286
2023-05-21T00:19:00.952Z,566.6429
2023-05-21T00:20:09.072Z,571.2857
2023-05-21T00:21:17.048Z,567.9286
2023-05-21T00:22:25.110Z,569.1429
2023-05-21T00:23:33.321Z,577.6429
2023-05-21T00:24:41.101Z,580.1429
2023-05-21T00:25:49.181Z,573.5714
2023-05-21T00:26:57.243Z,585.7857
2023-05-21T00:28:05.400Z,591.2143
2023-05-21T00:29:13.529Z,599.3571
2023-05-21T00:30:21.535Z,600.9286
2023-05-21T00:31:29.775Z,595.8571
2023-05-21T00:32:37.683Z,590.2143
2023-05-21T00:33:45.712Z,584.0714
2023-05-21T00:34:53.846Z,585.4286
2023-05-21T00:36:01.842Z,583.0000
2023-05-21T00:37:09.914Z,581.5000
2023-05-21T00:38:18.005Z,576.0714
2023-05-21T00:39:25.898Z,579.8571
2023-05-21T00:40:33.956Z,578.6429
2023-05-21T00:41:41.993Z,574.4286
2023-05-21T00:42:50.193Z,580.3571
2023-05-21T00:43:58.273Z,585.7143
2023-05-21T00:45:06.378Z,585.5714
2023-05-21T00:46:14.385Z,588.6429
2023-05-21T00:47:22.656Z,583.9286
2023-05-21T00:48:30.474Z,579.0714
2023-05-21T00:49:38.582Z,581.6429
2023-05-21T00:50:46.622Z,579.1429
2023-05-21T00:51:54.666Z,583.2143
2023-05-21T00:53:02.770Z,590.5000
2023-05-21T00:54:10.663Z,589.8571
2023-05-21T00:55:18.767Z,593.6429
2023-05-21T00:56:26.761Z,593.5714
2023-05-21T00:57:34.937Z,592.5714
2023-05-21T00:58:43.005Z,593.4286
2023-05-21T00:59:51.100Z,593.3571
2023-05-21T01:00:59.226Z,601.2143
2023-05-21T01:02:07.227Z,603.6429
2023-05-21T01:03:15.593Z,603.3571
2023-05-21T01:04:23.285Z,603.0000
2023-05-21T01:05:31.408Z,605.4286
2023-05-21T01:06:39.426Z,606.0000
2023-05-21T01:07:47.464Z,600.8571
2023-05-21T01:08:55.377Z,605.5000
2023-05-21T01:10:03.489Z,612.1429
2023-05-21T01:11:11.521Z,620.3571
2023-05-21T01:12:19.725Z,620.5714
2023-05-21T01:13:27.884Z,617.3571
2023-05-21T01:14:35.816Z,620.1429
2023-05-21T01:15:43.908Z,622.7143
2023-05-21T01:16:51.990Z,626.7143
2023-05-21T01:18:00.151Z,632.7143
2023-05-21T01:19:08.241Z,640.4286
2023-05-21T01:20:16.097Z,635.7857
2023-05-21T01:21:24.254Z,639.0000
2023-05-21T01:22:32.247Z,633.3571
2023-05-21T01:23:40.170Z,641.1429
2023-05-21T01:24:48.246Z,643.0000
2023-05-21T01:25:56.307Z,646.0000
2023-05-21T01:27:04.452Z,647.5714
2023-05-21T01:28:12.719Z,652.7143
2023-05-21T01:29:20.580Z,655.7143
2023-05-21T01:30:28.665Z,663.0000
2023-05-21T01:31:36.746Z,666.3571
2023-05-21T01:32:44.840Z,666.7857
2023-05-21T01:33:52.854Z,665.7857
2023-05-21T01:35:00.894Z,670.2143
2023-05-21T01:36:09.122Z,671.0000
2023-05-21T01:37:17.000Z,667.7143
2023-05-21T01:38:24.915Z,668.4286
2023-05-21T01:39:32.976Z,666.3571
2023-05-21T01:40:41.024Z,667.1429
2023-05-21T01:41:49.264Z,659.5714
2023-05-21T01:42:57.370Z,656.4286
2023-05-21T01:44:05.327Z,660.3571
2023-05-21T01:45:13.406Z,667.4286
2023-05-21T01:46:21.566Z,669.0714
2023-05-21T01:47:29.589Z,664.0714
2023-05-21T01:48:37.579Z,664.0000
2023-05-21T01:49:45.650Z,659.1429
2023-05-21T01:50:53.723Z,653.7857
2023-05-21T01:52:01.764Z,660.0000
2023-05-21T01:53:09.741Z,656.0000
2023-05-21T01:54:17.800Z,659.2857
2023-05-21T01:55:25.813Z,659.2143
2023-05-21T01:56:34.072Z,662.1429
2023-05-21T01:57:42.128Z,665.3571
2023-05-21T01:58:50.146Z,664.4286
2023-05-21T01:59:58.162Z,669.7143
2023-05-21T02:01:06.318Z,679.0714
2023-05-21T02:02:14.340Z,669.0714
2023-05-21T02:03:22.511Z,661.0000
2023-05-21T02:04:30.496Z,660.4286
2023-05-21T02:05:38.630Z,661.1429
2023-05-21T02:06:46.391Z,656.3571
2023-05-21T02:07:54.455Z,657.4286
2023-05-21T02:09:02.622Z,664.3571
2023-05-21T02:10:10.845Z,661.5000
2023-05-21T02:11:18.862Z,655.2143
2023-05-21T02:12:26.944Z,651.7857
2023-05-21T02:13:35.005Z,647.7143
2023-05-21T02:14:43.030Z,643.2857
2023-05-21T02:15:51.262Z,642.5714
2023-05-21T02:16:59.178Z,636.7857
2023-05-21T02:18:07.247Z,636.2857
2023-05-21T02:19:15.351Z,634.3571
2023-05-21T02:20:23.341Z,636.8571
2023-05-21T02:21:31.284Z,654.7857
2023-05-21T02:22:39.318Z,647.7857
2023-05-21T02:23:47.369Z,639.2857
2023-05-21T02:24:55.543Z,637.5714
2023-05-21T02:26:03.654Z,644.7143
2023-05-21T02:27:11.764Z,645.1429
2023-05-21T02:28:19.739Z,642.1429
2023-05-21T02:29:27.777Z,634.8571
2023-05-21T02:30:35.909Z,632.8571
2023-05-21T02:31:44.094Z,639.0000
2023-05-21T02:32:52.043Z,622.3571
2023-05-21T02:34:00.102Z,627.8571
2023-05-21T02:35:08.073Z,634.5000
2023-05-21T02:36:16.036Z,628.1429
2023-05-21T02:37:24.064Z,624.2143
2023-05-21T02:38:32.110Z,629.7143
2023-05-21T02:39:40.285Z,629.9286
2023-05-21T02:40:48.369Z,626.9286
2023-05-21T02:41:56.485Z,628.9286
2023-05-21T02:43:04.484Z,620.9286
2023-05-21T02:44:12.772Z,630.4286
2023-05-21T02:45:20.616Z,630.3571
2023-05-21T02:46:28.814Z,636.7857
2023-05-21T02:47:36.854Z,626.8571
2023-05-21T02:48:45.062Z,627.2857
2023-05-21T02:49:52.698Z,626.9286
2023-05-21T02:51:00.766Z,622.0714
2023-05-21T02:52:08.824Z,629.3571
2023-05-21T02:53:17.017Z,629.4286
2023-05-21T02:54:25.045Z,634.8571
2023-05-21T02:55:33.168Z,639.7857
2023-05-21T02:56:41.367Z,643.8571
2023-05-21T02:57:49.205Z,644.3571
2023-05-21T02:58:57.284Z,633.0000
2023-05-21T03:00:05.325Z,619.0714
2023-05-21T03:01:13.390Z,615.7857
2023-05-21T03:02:21.636Z,609.7143
2023-05-21T03:03:29.773Z,607.8571
2023-05-21T03:04:37.430Z,606.9286
2023-05-21T03:05:45.490Z,601.5000
2023-05-21T03:06:53.519Z,600.8571
2023-05-21T03:08:01.749Z,601.7857
2023-05-21T03:09:09.836Z,591.0000
2023-05-21T03:10:18.083Z,586.4286
2023-05-21T03:11:26.002Z,580.2143
2023-05-21T03:12:34.124Z,572.5000
2023-05-21T03:13:42.104Z,565.9286
2023-05-21T03:14:50.050Z,566.8571
2023-05-21T03:15:58.137Z,570.6429
2023-05-21T03:17:06.519Z,574.8571
2023-05-21T03:18:14.138Z,569.0000
2023-05-21T03:19:22.205Z,564.7143
2023-05-21T03:20:30.241Z,562.7857
2023-05-21T03:21:38.405Z,560.5000
2023-05-21T03:22:46.563Z,549.7143
2023-05-21T03:23:54.554Z,556.4286
2023-05-21T03:25:02.618Z,556.7857
2023-05-21T03:26:10.633Z,553.4286
2023-05-21T03:27:18.932Z,553.5000
2023-05-21T03:28:26.779Z,542.9286
2023-05-21T03:29:34.843Z,545.5000
2023-05-21T03:30:42.997Z,545.2857
2023-05-21T03:31:50.968Z,538.4286
2023-05-21T03:32:58.915Z,531.2143
2023-05-21T03:34:06.930Z,525.4286
2023-05-21T03:35:14.977Z,519.4286
2023-05-21T03:36:23.193Z,516.9286
2023-05-21T03:37:31.274Z,509.6429
2023-05-21T03:38:39.317Z,506.2143
2023-05-21T03:39:47.343Z,510.5714
2023-05-21T03:40:55.419Z,517.2143
2023-05-21T03:42:03.500Z,513.5714
2023-05-21T03:43:11.755Z,519.8571
2023-05-21T03:44:19.640Z,518.0714
2023-05-21T03:45:27.676Z,513.6429
2023-05-21T03:46:35.803Z,511.3571
2023-05-21T03:47:43.678Z,511.2143
2023-05-21T03:48:51.739Z,509.5000
2023-05-21T03:49:59.795Z,506.8571
2023-05-21T03:51:07.959Z,510.5000
2023-05-21T03:52:16.045Z,515.7857
2023-05-21T03:53:24.145Z,503.4286
2023-05-21T03:54:32.127Z,494.8571
2023-05-21T03:55:40.237Z,492.0000
2023-05-21T03:56:48.359Z,488.2857
2023-05-21T03:57:56.549Z,484.7143
2023-05-21T03:59:04.439Z,485.7857
2023-05-21T04:00:12.630Z,492.6429
2023-05-21T04:01:20.502Z,494.3571
2023-05-21T04:02:28.523Z,498.2857
2023-05-21T04:03:39.269Z,501.0714
2023-05-21T04:04:49.510Z,497.4667
2023-05-21T04:05:57.530Z,489.2857
2023-05-21T04:07:05.620Z,485.6429
2023-05-21T04:08:13.818Z,486.5000
2023-05-21T04:09:21.727Z,475.2857
2023-05-21T04:10:29.766Z,476.2143
2023-05-21T04:11:37.814Z,474.7143
2023-05-21T04:12:45.876Z,476.4286
2023-05-21T04:13:54.030Z,479.5000
2023-05-21T04:15:02.040Z,484.0000
2023-05-21T04:16:10.041Z,486.4286
2023-05-21T04:17:18.047Z,485.9286
2023-05-21T04:18:26.153Z,495.0714
2023-05-21T04:19:34.290Z,503.5000
2023-05-21T04:20:42.318Z,515.2143
2023-05-21T04:21:50.399Z,515.7143
2023-05-21T04:22:58.654Z,512.7857
2023-05-21T04:24:06.712Z,508.5000
2023-05-21T04:25:14.633Z,512.2857
2023-05-21T04:26:22.622Z,508.3571
2023-05-21T04:27:30.650Z,511.8571
2023-05-21T04:28:38.813Z,508.3571
2023-05-21T04:29:47.622Z,504.8571
2023-05-21T04:30:59.611Z,520.0000
2023-05-21T04:32:07.594Z,527.0000
2023-05-21T04:33:15.712Z,516.2857
2023-05-21T04:34:24.084Z,523.0000
2023-05-21T04:35:31.947Z,524.5714
2023-05-21T04:36:40.077Z,525.5000
2023-05-21T04:37:48.049Z,529.0714
2023-05-21T04:38:56.200Z,542.1429
2023-05-21T04:40:04.304Z,551.0714
2023-05-21T04:41:12.237Z,564.5714
2023-05-21T04:42:20.299Z,569.3571
2023-05-21T04:43:28.395Z,577.7857
2023-05-21T04:44:36.451Z,583.7143
2023-05-21T04:45:44.357Z,584.0000
2023-05-21T04:46:52.420Z,574.1429
2023-05-21T04:48:00.780Z,574.4286
2023-05-21T04:49:08.649Z,566.7857
2023-05-21T04:50:16.880Z,561.7857
2023-05-21T04:51:24.989Z,559.7857
2023-05-21T04:52:32.825Z,560.5714
2023-05-21T04:53:40.901Z,561.2857
2023-05-21T04:54:48.944Z,570.9286
2023-05-21T04:55:57.061Z,584.7143
2023-05-21T04:57:05.238Z,581.1429
2023-05-21T04:58:13.204Z,592.3571
2023-05-21T04:59:21.168Z,596.5714
2023-05-21T05:00:29.123Z,615.7857
2023-05-21T05:01:37.198Z,615.7857
2023-05-21T05:02:45.310Z,608.6429
2023-05-21T05:03:53.522Z,612.8571
2023-05-21T05:05:01.613Z,614.5714
2023-05-21T05:06:09.667Z,620.5714
2023-05-21T05:07:17.627Z,621.5714
2023-05-21T05:08:25.676Z,632.4286
2023-05-21T05:09:33.739Z,643.2143
2023-05-21T05:10:41.780Z,649.7857
2023-05-21T05:11:49.859Z,644.1429
2023-05-21T05:12:57.918Z,649.7857
2023-05-21T05:14:05.977Z,656.9286
2023-05-21T05:15:13.867Z,661.8571
2023-05-21T05:16:22.016Z,654.5000
2023-05-21T05:17:30.030Z,651.5000
2023-05-21T05:18:38.214Z,662.8571
2023-05-21T05:19:46.300Z,664.1429
2023-05-21T05:20:54.335Z,660.3571
2023-05-21T05:22:02.463Z,667.1429
2023-05-21T05:23:10.470Z,666.8571
2023-05-21T05:24:18.493Z,670.0714
2023-05-21T05:25:26.681Z,676.8571
2023-05-21T05:26:34.641Z,678.8571
2023-05-21T05:27:42.656Z,687.0000
2023-05-21T05:28:50.805Z,700.8571
2023-05-21T05:29:58.673Z,715.6429
2023-05-21T05:31:06.741Z,715.2857
2023-05-21T05:32:14.840Z,714.2857
2023-05-21T05:33:22.983Z,708.0714
2023-05-21T05:34:31.063Z,709.6429
2023-05-21T05:35:39.159Z,705.5714
2023-05-21T05:36:47.128Z,710.3571
2023-05-21T05:37:55.272Z,701.4286
2023-05-21T05:39:03.513Z,713.4286
2023-05-21T05:40:11.455Z,718.0714
2023-05-21T05:41:19.450Z,713.5000
2023-05-21T05:42:27.454Z,715.7857
2023-05-21T05:43:35.471Z,717.3571
2023-05-21T05:44:43.449Z,720.5000
2023-05-21T05:45:51.517Z,728.5000
2023-05-21T05:46:59.589Z,737.8571
2023-05-21T05:48:07.925Z,734.7143
2023-05-21T05:49:15.825Z,732.6429
2023-05-21T05:50:23.889Z,736.2857
2023-05-21T05:51:31.903Z,732.9286
2023-05-21T05:52:39.971Z,737.0000
2023-05-21T05:53:48.101Z,726.1429
2023-05-21T05:54:56.177Z,726.6429
2023-05-21T05:56:04.117Z,725.5000
2023-05-21T05:57:12.396Z,719.7143
2023-05-21T05:58:20.274Z,714.2143
2023-05-21T05:59:28.562Z,727.0714
2023-05-21T06:00:36.267Z,732.0000
2023-05-21T06:01:44.321Z,734.2143
2023-05-21T06:02:52.427Z,733.4286
2023-05-21T06:04:00.695Z,731.6429
2023-05-21T06:05:08.573Z,728.3571
2023-05-21T06:06:17.041Z,734.6429
2023-05-21T06:07:24.730Z,730.5714
2023-05-21T06:08:32.793Z,724.6429
2023-05-21T06:09:40.943Z,727.1429
2023-05-21T06:10:48.942Z,735.5000
2023-05-21T06:11:57.000Z,741.3571
2023-05-21T06:13:05.087Z,739.6429
2023-05-21T06:14:13.086Z,735.7857
2023-05-21T06:15:21.001Z,738.0714
2023-05-21T06:16:29.082Z,748.7143
2023-05-21T06:17:37.201Z,753.2857
2023-05-21T06:18:45.415Z,758.8571
2023-05-21T06:19:53.608Z,753.2143
2023-05-21T06:21:01.656Z,745.0714
2023-05-21T06:22:09.564Z,747.7143
2023-05-21T06:23:17.614Z,752.2857
2023-05-21T06:24:25.738Z,752.3571
2023-05-21T06:25:33.814Z,749.2143
2023-05-21T06:26:41.772Z,764.2857
2023-05-21T06:27:49.969Z,769.3571
2023-05-21T06:28:58.007Z,768.0714
2023-05-21T06:30:05.853Z,763.2143
2023-05-21T06:31:13.923Z,757.2143
2023-05-21T06:32:22.011Z,763.7143
2023-05-21T06:33:30.223Z,765.7143
2023-05-21T06:34:38.253Z,762.6429
2023-05-21T06:35:46.378Z,769.8571
2023-05-21T06:36:54.316Z,770.6429
2023-05-21T06:38:02.400Z,776.0000
2023-05-21T06:39:10.490Z,780.1429
2023-05-21T06:40:18.558Z,776.5714
2023-05-21T06:41:26.561Z,787.0714
2023-05-21T06:42:34.626Z,792.8571
2023-05-21T06:43:42.674Z,792.9286
2023-05-21T06:44:50.597Z,809.7857
2023-05-21T06:45:58.718Z,809.6429
2023-05-21T06:47:06.713Z,799.1429
2023-05-21T06:48:14.887Z,799.8571
2023-05-21T06:49:22.924Z,803.9286
2023-05-21T06:50:31.036Z,794.9286
2023-05-21T06:51:39.100Z,798.2143
2023-05-21T06:52:47.102Z,817.5714
2023-05-21T06:53:55.162Z,817.8571
2023-05-21T06:55:03.229Z,802.8571
2023-05-21T06:56:11.312Z,805.7857
2023-05-21T06:57:19.396Z,811.1429
2023-05-21T06:58:27.410Z,812.0714
2023-05-21T06:59:35.348Z,815.3571
2023-05-21T07:00:43.442Z,811.7143
2023-05-21T07:01:51.433Z,817.8571
2023-05-21T07:02:59.682Z,824.4286
2023-05-21T07:04:07.810Z,824.1429
2023-05-21T07:05:15.765Z,810.8571
2023-05-21T07:06:23.817Z,811.5714
2023-05-21T07:07:31.909Z,800.5714
2023-05-21T07:08:39.886Z,841.9286
2023-05-21T07:09:48.011Z,843.0714
2023-05-21T07:10:56.251Z,847.0000
2023-05-21T07:12:04.087Z,847.2143
2023-05-21T07:13:12.376Z,839.7143
2023-05-21T07:14:20.075Z,828.5714
2023-05-21T07:15:28.160Z,832.2857
2023-05-21T07:16:36.254Z,829.8571
2023-05-21T07:17:44.502Z,816.5000
2023-05-21T07:18:52.462Z,820.0000
2023-05-21T07:20:00.584Z,815.4286
2023-05-21T07:21:08.555Z,817.2857
2023-05-21T07:22:16.635Z,821.4286
2023-05-21T07:23:24.672Z,820.2143
2023-05-21T07:24:32.731Z,804.2857
2023-05-21T07:25:40.787Z,799.5000
2023-05-21T07:26:48.855Z,800.0000
2023-05-21T07:27:56.905Z,802.5714
2023-05-21T07:29:04.849Z,798.5000
2023-05-21T07:30:12.940Z,794.1429
2023-05-21T07:31:20.980Z,794.5714
2023-05-21T07:32:29.276Z,796.2143
2023-05-21T07:33:37.362Z,798.6429
2023-05-21T07:34:45.261Z,815.3571
2023-05-21T07:35:53.378Z,820.3571
2023-05-21T07:37:01.355Z,808.0714
2023-05-21T07:38:09.456Z,810.4286
2023-05-21T07:39:17.497Z,805.5000
2023-05-21T07:40:25.710Z,805.3571
2023-05-21T07:41:33.643Z,808.0000
2023-05-21T07:42:41.751Z,806.6429
2023-05-21T07:43:49.628Z,807.6429
2023-05-21T07:44:57.686Z,797.4286
2023-05-21T07:46:05.820Z,809.2857
2023-05-21T07:47:13.974Z,814.0714
2023-05-21T07:48:22.008Z,816.7857
2023-05-21T07:49:30.186Z,817.0000
2023-05-21T07:50:38.251Z,808.4286
2023-05-21T07:51:46.154Z,807.2143
2023-05-21T07:52:54.287Z,819.4286
2023-05-21T07:54:02.279Z,821.6429
2023-05-21T07:55:10.371Z,822.0714
2023-05-21T07:56:18.503Z,826.5714
2023-05-21T07:57:26.632Z,823.0000
2023-05-21T07:58:34.399Z,833.3571
2023-05-21T07:59:42.469Z,831.2143
2023-05-21T08:00:50.564Z,820.0714
2023-05-21T08:01:58.692Z,832.3571
2023-05-21T08:03:06.849Z,839.3571
2023-05-21T08:04:14.927Z,840.5000
2023-05-21T08:05:23.072Z,837.9286
2023-05-21T08:06:30.994Z,835.8571
2023-05-21T08:07:38.997Z,833.2857
2023-05-21T08:08:47.104Z,830.8571
2023-05-21T08:09:55.014Z,833.4286
2023-05-21T08:11:03.211Z,834.2857
2023-05-21T08:12:11.304Z,834.1429
2023-05-21T08:13:19.282Z,834.4286
2023-05-21T08:14:27.351Z,840.6429
2023-05-21T08:15:35.725Z,839.5714
2023-05-21T08:16:43.605Z,835.3571
2023-05-21T08:17:51.529Z,832.8571
2023-05-21T08:18:59.654Z,848.2857
2023-05-21T08:20:07.810Z,852.2857
2023-05-21T08:21:15.774Z,840.5000
2023-05-21T08:22:23.679Z,833.7857
2023-05-21T08:23:31.732Z,843.2857
2023-05-21T08:24:39.782Z,847.5714
2023-05-21T08:25:47.985Z,845.8571
2023-05-21T08:26:56.103Z,855.9286
2023-05-21T08:28:04.238Z,863.7857
2023-05-21T08:29:12.173Z,869.4286
2023-05-21T08:30:20.261Z,873.3571
2023-05-21T08:31:28.373Z,879.8571
2023-05-21T08:32:36.343Z,887.5000
2023-05-21T08:33:44.444Z,897.0000
2023-05-21T08:34:52.441Z,898.2857
2023-05-21T08:36:00.724Z,924.5000
2023-05-21T08:37:08.426Z,946.1429
2023-05-21T08:38:16.495Z,961.5000
2023-05-21T08:39:24.563Z,964.7857
2023-05-21T08:40:32.737Z,958.5714
2023-05-21T08:41:40.854Z,958.4286
2023-05-21T08:42:48.861Z,965.7857
2023-05-21T08:43:56.991Z,961.7857
2023-05-21T08:45:05.059Z,957.2143
2023-05-21T08:46:13.094Z,958.7857
2023-05-21T08:47:21.124Z,957.7857
2023-05-21T08:48:29.161Z,954.5000
2023-05-21T08:49:37.183Z,948.3571
2023-05-21T08:50:45.232Z,942.8571
2023-05-21T08:51:53.193Z,944.6429
2023-05-21T08:53:01.384Z,945.0714
2023-05-21T08:54:09.284Z,932.3571
2023-05-21T08:55:17.480Z,929.1429
2023-05-21T08:56:25.519Z,928.0000
2023-05-21T08:57:33.637Z,926.5000
2023-05-21T08:58:41.700Z,907.8571
2023-05-21T08:59:50.021Z,900.4286
2023-05-21T09:00:57.767Z,893.0000
2023-05-21T09:02:05.856Z,893.0714
2023-05-21T09:03:13.987Z,890.7857
2023-05-21T09:04:22.184Z,904.0000
2023-05-21T09:05:29.850Z,903.5000
2023-05-21T09:06:37.911Z,894.4286
2023-05-21T09:07:45.972Z,902.8571
2023-05-21T09:08:54.288Z,895.7857
2023-05-21T09:10:02.226Z,902.6429
2023-05-21T09:11:10.271Z,897.5714
2023-05-21T09:12:18.330Z,898.3571
2023-05-21T09:13:26.600Z,897.5714
2023-05-21T09:14:34.448Z,896.3571
2023-05-21T09:15:42.646Z,892.6429
2023-05-21T09:16:50.794Z,886.2143
2023-05-21T09:17:58.712Z,885.4286
2023-05-21T09:19:06.702Z,887.7857
2023-05-21T09:20:14.833Z,888.4286
2023-05-21T09:21:22.643Z,876.1429
2023-05-21T09:22:30.737Z,875.2143
2023-05-21T09:23:38.920Z,872.3571
2023-05-21T09:24:47.059Z,874.0714
2023-05-21T09:25:54.974Z,866.0714
2023-05-21T09:27:03.043Z,892.7143
2023-05-21T09:28:11.163Z,896.3571
2023-05-21T09:29:19.210Z,893.0714
2023-05-21T09:30:30.187Z,891.5000
2023-05-21T09:31:40.267Z,903.3333
2023-05-21T09:32:48.340Z,895.0000
2023-05-21T09:33:56.207Z,877.4286
2023-05-21T09:35:04.253Z,875.7143
2023-05-21T09:36:12.303Z,871.9286
2023-05-21T09:38:33.364Z,844.0000
2023-05-21T09:39:41.750Z,836.7857
2023-05-21T09:40:49.681Z,840.5000
2023-05-21T09:41:57.564Z,842.2857
2023-05-21T09:43:05.741Z,830.5000
2023-05-21T09:44:13.711Z,834.3571
2023-05-21T09:45:21.745Z,827.0714
2023-05-21T09:46:29.863Z,822.2857
2023-05-21T09:47:37.810Z,821.0000
2023-05-21T09:48:45.796Z,821.0714
2023-05-21T09:49:53.845Z,825.5000
2023-05-21T09:51:02.054Z,832.7857
2023-05-21T09:52:10.242Z,852.5714
2023-05-21T09:53:18.234Z,858.5000
2023-05-21T09:54:26.270Z,866.9286
2023-05-21T09:55:34.292Z,879.0714
2023-05-21T09:56:42.472Z,886.8571
2023-05-21T09:57:51.026Z,904.2857
2023-05-21T09:58:58.546Z,930.7143
2023-05-21T10:00:06.388Z,969.4286
2023-05-21T10:01:14.732Z,1004.9286
2023-05-21T10:02:22.613Z,1043.3572
2023-05-21T10:03:30.646Z,1077.6428
2023-05-21T10:04:38.743Z,1111.5000
2023-05-21T10:05:46.839Z,1149.8572
2023-05-21T10:06:54.923Z,1199.0714
2023-05-21T10:08:02.985Z,1236.6428
2023-05-21T10:09:11.122Z,1260.4286
2023-05-21T10:10:19.121Z,1278.7142
2023-05-21T10:11:27.174Z,1304.7142
2023-05-21T10:12:35.255Z,1330.7142
2023-05-21T10:13:43.456Z,1339.9286
2023-05-21T10:14:51.342Z,1354.2858
2023-05-21T10:15:59.443Z,1365.4286
2023-05-21T10:17:07.313Z,1358.5000
2023-05-21T10:18:15.374Z,1348.5000
2023-05-21T10:19:23.653Z,1353.5714
2023-05-21T10:20:31.693Z,1359.8572
2023-05-21T10:21:39.718Z,1378.9286
2023-05-21T10:22:47.909Z,1393.0714
2023-05-21T10:23:55.876Z,1417.4286
2023-05-21T10:25:03.934Z,1425.2142
2023-05-21T10:26:12.002Z,1447.1428
2023-05-21T10:27:20.099Z,1474.4286
2023-05-21T10:28:28.035Z,1495.5000
2023-05-21T10:29:36.256Z,1518.5714
2023-05-21T10:30:44.441Z,1549.8572
2023-05-21T10:31:52.298Z,1591.8572
2023-05-21T10:33:00.367Z,1584.1428
2023-05-21T10:34:08.368Z,1583.2142
2023-05-21T10:35:16.576Z,1586.2858
2023-05-21T10:36:24.594Z,1652.7142
2023-05-21T10:37:32.649Z,1695.4286
2023-05-21T10:38:40.911Z,1683.3572
2023-05-21T10:39:48.918Z,1727.3572
2023-05-21T10:40:56.858Z,1752.3572
2023-05-21T10:42:04.949Z,1756.4286
2023-05-21T10:43:13.008Z,1686.0000
2023-05-21T10:44:21.113Z,1662.8572
2023-05-21T10:45:29.184Z,1713.3572
2023-05-21T10:46:37.059Z,1781.0714
2023-05-21T10:47:45.179Z,1838.3572
2023-05-21T10:48:53.190Z,1858.7858
2023-05-21T10:50:01.399Z,1807.9286
2023-05-21T10:51:09.508Z,1775.2858
2023-05-21T10:52:17.500Z,1800.0714
2023-05-21T10:53:25.573Z,1820.0000
2023-05-21T10:54:33.877Z,1830.1428
2023-05-21T10:55:41.803Z,1865.5714
2023-05-21T10:56:49.723Z,1828.0000
2023-05-21T10:57:57.794Z,1764.1428
2023-05-21T10:59:05.893Z,1729.9286
2023-05-21T11:00:14.020Z,1716.0000
2023-05-21T11:01:21.918Z,1636.3572
2023-05-21T11:02:30.034Z,1554.3572
2023-05-21T11:03:38.297Z,1515.3572
2023-05-21T11:04:46.270Z,1486.3572
2023-05-21T11:05:54.352Z,1481.6428
2023-05-21T11:07:02.378Z,1481.2858
2023-05-21T11:08:10.472Z,1476.2858
2023-05-21T11:09:18.468Z,1469.7858
2023-05-21T11:10:26.574Z,1469.0000
2023-05-21T11:11:34.628Z,1454.6428
2023-05-21T11:12:42.660Z,1426.0000
2023-05-21T11:13:50.786Z,1399.4286
2023-05-21T11:14:58.864Z,1388.9286
2023-05-21T11:16:06.909Z,1359.2142
2023-05-21T11:17:15.150Z,1341.3572
2023-05-21T11:18:23.131Z,1317.1428
2023-05-21T11:19:33.314Z,1298.1428
2023-05-21T11:20:43.938Z,1271.1333
2023-05-21T11:21:52.158Z,1258.8572
2023-05-21T11:23:00.292Z,1257.3572
2023-05-21T11:24:08.253Z,1251.6428
2023-05-21T11:25:16.328Z,1254.0714
2023-05-21T11:26:24.395Z,1248.7858
2023-05-21T11:27:32.560Z,1269.9286
2023-05-21T11:28:40.509Z,1279.8572
2023-05-21T11:29:48.440Z,1282.7142
2023-05-21T11:30:56.711Z,1280.1428
2023-05-21T11:32:04.761Z,1287.8572
2023-05-21T11:33:12.766Z,1275.7858
2023-05-21T11:34:20.724Z,1270.8572
2023-05-21T11:35:28.778Z,1267.2858
2023-05-21T11:36:37.113Z,1255.4286
2023-05-21T11:37:44.922Z,1254.1428
2023-05-21T11:38:53.161Z,1240.4286
2023-05-21T11:40:01.253Z,1224.9286
2023-05-21T11:41:09.251Z,1203.2142
2023-05-21T11:42:17.313Z,1186.8572
2023-05-21T11:43:25.457Z,1179.7142
2023-05-21T11:44:33.498Z,1166.6428
2023-05-21T11:45:41.697Z,1179.6428
2023-05-21T11:46:49.641Z,1179.2142
2023-05-21T11:47:57.566Z,1189.7858
2023-05-21T11:49:05.568Z,1204.5714
2023-05-21T11:50:13.621Z,1223.3572
2023-05-21T11:51:21.809Z,1239.5714
2023-05-21T11:52:29.957Z,1254.1428
2023-05-21T11:53:37.935Z,1277.8572
2023-05-21T11:54:46.021Z,1281.8572
2023-05-21T11:55:54.101Z,1310.7142
2023-05-21T11:57:02.230Z,1335.9286
2023-05-21T11:58:10.240Z,1362.0000
2023-05-21T11:59:19.001Z,1391.2142
2023-05-21T12:00:26.597Z,1427.5714
2023-05-21T12:01:34.316Z,1449.5000
2023-05-21T12:02:42.454Z,1452.3572
2023-05-21T12:03:50.602Z,1464.1428
2023-05-21T12:04:58.666Z,1464.6428
2023-05-21T12:06:06.915Z,1477.1428
2023-05-21T12:07:14.818Z,1498.4286
2023-05-21T12:08:22.958Z,1492.0000
2023-05-21T12:09:30.941Z,1504.6428
2023-05-21T12:10:39.038Z,1508.0000
2023-05-21T12:11:47.089Z,1525.2858
2023-05-21T12:12:57.336Z,1541.8572
2023-05-21T12:14:08.148Z,1559.5333
2023-05-21T12:15:16.064Z,1547.0714
2023-05-21T12:16:24.191Z,1578.3572
2023-05-21T12:17:32.273Z,1636.6428
2023-05-21T12:18:40.253Z,1617.0000
2023-05-21T12:19:48.353Z,1583.4286
2023-05-21T12:20:56.516Z,1550.9286
2023-05-21T12:22:04.592Z,1549.0714
2023-05-21T12:23:12.722Z,1565.7142
2023-05-21T12:24:20.734Z,1554.0714
2023-05-21T12:25:28.859Z,1557.7142
2023-05-21T12:26:36.897Z,1519.1428
2023-05-21T12:27:44.913Z,1524.4286
2023-05-21T12:28:53.020Z,1524.7858
2023-05-21T12:30:01.060Z,1494.7858
2023-05-21T12:31:09.236Z,1449.1428
2023-05-21T12:32:17.111Z,1454.0000
2023-05-21T12:33:25.342Z,1458.0000
2023-05-21T12:34:33.247Z,1410.6428
2023-05-21T12:35:41.600Z,1380.0000
2023-05-21T12:36:49.588Z,1355.7858
2023-05-21T12:37:57.609Z,1347.8572
2023-05-21T12:39:05.660Z,1351.8572
2023-05-21T12:40:13.788Z,1343.2858
2023-05-21T12:41:21.761Z,1327.9286
2023-05-21T12:42:29.839Z,1329.7142
2023-05-21T12:43:37.869Z,1351.0000
2023-05-21T12:44:45.980Z,1362.7858
2023-05-21T12:45:54.023Z,1356.3572
2023-05-21T12:47:02.089Z,1364.7858
2023-05-21T12:48:10.205Z,1376.7142
2023-05-21T12:49:18.138Z,1356.6428
2023-05-21T12:50:26.579Z,1337.0000
2023-05-21T12:51:34.367Z,1317.2858
2023-05-21T12:52:42.518Z,1302.4286
2023-05-21T12:53:50.510Z,1277.5000
2023-05-21T12:54:58.582Z,1260.0714
2023-05-21T12:56:06.800Z,1245.0714
2023-05-21T12:57:14.792Z,1250.2142
2023-05-21T12:58:22.772Z,1235.4286
2023-05-21T12:59:31.030Z,1215.7142
2023-05-21T13:00:39.097Z,1214.6428
2023-05-21T13:01:46.903Z,1200.8572
2023-05-21T13:02:54.961Z,1210.1428
2023-05-21T13:04:03.009Z,1206.7142
2023-05-21T13:05:11.178Z,1200.0000
2023-05-21T13:06:19.263Z,1196.0000
2023-05-21T13:07:27.302Z,1205.7858
2023-05-21T13:08:35.409Z,1198.6428
2023-05-21T13:09:43.449Z,1195.7142
2023-05-21T13:10:51.582Z,1209.6428
2023-05-21T13:11:59.785Z,1227.0714
2023-05-21T13:13:07.640Z,1233.3572
2023-05-21T13:14:15.800Z,1235.4286
2023-05-21T13:15:23.805Z,1238.1428